sensor_id;sensor_type;location;lat;lon;timestamp;pressure;altitude;pressure_sealevel;temperature;humidity
69624;BME280;56843;52.020;5.670;2023-05-01T00:00:30;101643.53;;;12.69;55.76
69624;BME280;56843;52.020;5.670;2023-05-01T00:02:01;101638.16;;;12.69;55.50
69624;BME280;56843;52.020;5.670;2023-05-01T00:03:32;101644.31;;;12.69;55.33
69624;BME280;56843;52.020;5.670;2023-05-01T00:05:02;101640.84;;;12.69;55.50
69624;BME280;56843;52.020;5.670;2023-05-01T00:06:33;101622.88;;;12.69;55.86
69624;BME280;56843;52.020;5.670;2023-05-01T00:08:04;101633.59;;;12.69;55.77
69624;BME280;56843;52.020;5.670;2023-05-01T00:09:34;101632.81;;;12.69;55.70
69624;BME280;56843;52.020;5.670;2023-05-01T00:11:05;101622.09;;;12.69;55.85
69624;BME280;56843;52.020;5.670;2023-05-01T00:12:40;101639.28;;;12.68;55.75
69624;BME280;56843;52.020;5.670;2023-05-01T00:14:11;101630.44;;;12.67;55.42
69624;BME280;56843;52.020;5.670;2023-05-01T00:15:41;101626.97;;;12.67;55.63
69624;BME280;56843;52.020;5.670;2023-05-01T00:17:12;101626.19;;;12.66;55.62
69624;BME280;56843;52.020;5.670;2023-05-01T00:18:43;101626.19;;;12.66;55.84
69624;BME280;56843;52.020;5.670;2023-05-01T00:20:14;101614.53;;;12.62;55.85
69624;BME280;56843;52.020;5.670;2023-05-01T00:21:47;101614.22;;;12.64;55.71
69624;BME280;56843;52.020;5.670;2023-05-01T00:23:18;101612.63;;;12.63;56.05
69624;BME280;56843;52.020;5.670;2023-05-01T00:24:48;101607.59;;;12.61;55.75
69624;BME280;56843;52.020;5.670;2023-05-01T00:26:19;101610.75;;;12.63;55.65
69624;BME280;56843;52.020;5.670;2023-05-01T00:27:52;101604.13;;;12.61;55.67
69624;BME280;56843;52.020;5.670;2023-05-01T00:29:22;101609.47;;;12.61;55.96
69624;BME280;56843;52.020;5.670;2023-05-01T00:30:53;101609.63;;;12.55;55.96
69624;BME280;56843;52.020;5.670;2023-05-01T00:32:23;101605.53;;;12.58;55.97
69624;BME280;56843;52.020;5.670;2023-05-01T00:33:54;101604.75;;;12.57;55.77
69624;BME280;56843;52.020;5.670;2023-05-01T00:35:25;101602.38;;;12.56;55.81
69624;BME280;56843;52.020;5.670;2023-05-01T00:36:56;101597.81;;;12.57;55.80
69624;BME280;56843;52.020;5.670;2023-05-01T00:38:27;101598.13;;;12.55;56.09
69624;BME280;56843;52.020;5.670;2023-05-01T00:39:58;101588.53;;;12.54;55.77
69624;BME280;56843;52.020;5.670;2023-05-01T00:41:28;101602.25;;;12.52;56.01
69624;BME280;56843;52.020;5.670;2023-05-01T00:42:59;101592.63;;;12.51;55.85
69624;BME280;56843;52.020;5.670;2023-05-01T00:44:29;101581.28;;;12.46;55.97
69624;BME280;56843;52.020;5.670;2023-05-01T00:46:00;101585.19;;;12.48;55.88
69624;BME280;56843;52.020;5.670;2023-05-01T00:47:31;101597.38;;;12.46;55.90
69624;BME280;56843;52.020;5.670;2023-05-01T00:49:03;101585.84;;;12.45;56.34
69624;BME280;56843;52.020;5.670;2023-05-01T00:50:33;101578.91;;;12.44;56.29
69624;BME280;56843;52.020;5.670;2023-05-01T00:52:04;101578.44;;;12.42;56.01
69624;BME280;56843;52.020;5.670;2023-05-01T00:53:35;101568.34;;;12.39;56.10
69624;BME280;56843;52.020;5.670;2023-05-01T00:55:06;101580.97;;;12.39;56.13
69624;BME280;56843;52.020;5.670;2023-05-01T00:56:37;101577.03;;;12.36;56.48
69624;BME280;56843;52.020;5.670;2023-05-01T00:58:09;101573.88;;;12.34;56.52
69624;BME280;56843;52.020;5.670;2023-05-01T00:59:40;101571.50;;;12.33;56.17
69624;BME280;56843;52.020;5.670;2023-05-01T01:03:18;101567.72;;;12.25;56.50
69624;BME280;56843;52.020;5.670;2023-05-01T01:04:49;101566.94;;;12.25;56.57
69624;BME280;56843;52.020;5.670;2023-05-01T01:11:29;101556.69;;;12.18;56.64
69624;BME280;56843;52.020;5.670;2023-05-01T01:13:23;101551.97;;;12.15;56.89
69624;BME280;56843;52.020;5.670;2023-05-01T01:15:12;101549.94;;;12.12;56.64
69624;BME280;56843;52.020;5.670;2023-05-01T01:17:09;101545.19;;;12.09;56.87
69624;BME280;56843;52.020;5.670;2023-05-01T01:20:31;101542.66;;;12.04;56.74
69624;BME280;56843;52.020;5.670;2023-05-01T01:22:09;101544.09;;;12.02;57.02
69624;BME280;56843;52.020;5.670;2023-05-01T01:23:52;101537.94;;;12.01;57.04
69624;BME280;56843;52.020;5.670;2023-05-01T01:25:49;101536.34;;;12.00;56.95
69624;BME280;56843;52.020;5.670;2023-05-01T01:27:45;101533.53;;;11.97;57.16
69624;BME280;56843;52.020;5.670;2023-05-01T01:35:05;101521.22;;;11.87;57.20
69624;BME280;56843;52.020;5.670;2023-05-01T01:37:02;101521.69;;;11.89;57.07
69624;BME280;56843;52.020;5.670;2023-05-01T01:38:44;101518.88;;;11.86;57.11
69624;BME280;56843;52.020;5.670;2023-05-01T01:40:18;101516.53;;;11.84;57.03
69624;BME280;56843;52.020;5.670;2023-05-01T01:41:52;101518.41;;;11.84;56.93
69624;BME280;56843;52.020;5.670;2023-05-01T01:43:24;101517.59;;;11.83;57.41
69624;BME280;56843;52.020;5.670;2023-05-01T01:44:59;101504.69;;;11.85;56.97
69624;BME280;56843;52.020;5.670;2023-05-01T01:46:37;101505.81;;;11.84;57.02
69624;BME280;56843;52.020;5.670;2023-05-01T01:48:12;101503.63;;;11.86;57.03
69624;BME280;56843;52.020;5.670;2023-05-01T01:49:48;101503.63;;;11.86;56.85
69624;BME280;56843;52.020;5.670;2023-05-01T01:51:23;101499.03;;;11.87;57.11
69624;BME280;56843;52.020;5.670;2023-05-01T01:52:57;101494.47;;;11.87;56.98
69624;BME280;56843;52.020;5.670;2023-05-01T01:54:35;101493.84;;;11.90;57.01
69624;BME280;56843;52.020;5.670;2023-05-01T01:56:07;101486.13;;;11.89;56.85
69624;BME280;56843;52.020;5.670;2023-05-01T01:57:39;101484.69;;;11.91;56.68
69624;BME280;56843;52.020;5.670;2023-05-01T01:59:12;101484.88;;;11.95;56.53
69624;BME280;56843;52.020;5.670;2023-05-01T02:00:44;101488.81;;;11.97;56.77
69624;BME280;56843;52.020;5.670;2023-05-01T02:02:18;101477.78;;;11.99;56.54
69624;BME280;56843;52.020;5.670;2023-05-01T02:03:50;101476.66;;;12.00;56.53
69624;BME280;56843;52.020;5.670;2023-05-01T02:05:23;101479.06;;;12.01;56.36
69624;BME280;56843;52.020;5.670;2023-05-01T02:06:55;101485.66;;;12.04;56.40
69624;BME280;56843;52.020;5.670;2023-05-01T02:08:29;101476.53;;;12.05;56.16
69624;BME280;56843;52.020;5.670;2023-05-01T02:10:03;101476.53;;;12.05;56.12
69624;BME280;56843;52.020;5.670;2023-05-01T02:11:35;101473.53;;;12.06;56.11
69624;BME280;56843;52.020;5.670;2023-05-01T02:13:07;101468.97;;;12.07;56.30
69624;BME280;56843;52.020;5.670;2023-05-01T02:14:39;101459.84;;;12.08;56.17
69624;BME280;56843;52.020;5.670;2023-05-01T02:16:12;101463.31;;;12.08;55.83
69624;BME280;56843;52.020;5.670;2023-05-01T02:17:44;101462.97;;;12.10;55.88
69624;BME280;56843;52.020;5.670;2023-05-01T02:19:15;101463.44;;;12.12;55.71
69624;BME280;56843;52.020;5.670;2023-05-01T02:20:46;101457.31;;;12.11;56.04
69624;BME280;56843;52.020;5.670;2023-05-01T02:22:18;101456.22;;;12.12;56.03
69624;BME280;56843;52.020;5.670;2023-05-01T02:23:53;101462.03;;;12.14;55.93
69624;BME280;56843;52.020;5.670;2023-05-01T02:25:25;101450.22;;;12.15;55.49
69624;BME280;56843;52.020;5.670;2023-05-01T02:27:00;101445.66;;;12.16;55.59
69624;BME280;56843;52.020;5.670;2023-05-01T02:28:33;101452.59;;;12.17;55.58
69624;BME280;56843;52.020;5.670;2023-05-01T02:30:05;101445.34;;;12.17;55.34
69624;BME280;56843;52.020;5.670;2023-05-01T02:31:36;101445.34;;;12.17;55.71
69624;BME280;56843;52.020;5.670;2023-05-01T02:33:08;101446.91;;;12.18;55.22
69624;BME280;56843;52.020;5.670;2023-05-01T02:34:38;101441.22;;;12.20;55.66
69624;BME280;56843;52.020;5.670;2023-05-01T02:36:09;101439.34;;;12.20;55.57
69624;BME280;56843;52.020;5.670;2023-05-01T02:37:39;101443.13;;;12.19;55.22
69624;BME280;56843;52.020;5.670;2023-05-01T02:39:10;101441.22;;;12.20;55.37
69624;BME280;56843;52.020;5.670;2023-05-01T02:40:47;101431.31;;;12.20;55.29
69624;BME280;56843;52.020;5.670;2023-05-01T02:42:19;101438.53;;;12.20;55.27
69624;BME280;56843;52.020;5.670;2023-05-01T02:43:55;101442.81;;;12.21;54.90
69624;BME280;56843;52.020;5.670;2023-05-01T02:45:29;101433.97;;;12.20;55.07
69624;BME280;56843;52.020;5.670;2023-05-01T02:47:01;101427.06;;;12.19;54.94
69624;BME280;56843;52.020;5.670;2023-05-01T02:48:32;101433.97;;;12.20;55.17
69624;BME280;56843;52.020;5.670;2023-05-01T02:50:05;101434.78;;;12.21;55.11
69624;BME280;56843;52.020;5.670;2023-05-01T02:51:37;101427.06;;;12.19;54.87
69624;BME280;56843;52.020;5.670;2023-05-01T02:53:10;101421.72;;;12.19;55.12
69624;BME280;56843;52.020;5.670;2023-05-01T02:54:49;101419.03;;;12.19;54.82
69624;BME280;56843;52.020;5.670;2023-05-01T02:56:20;101416.34;;;12.19;54.80
69624;BME280;56843;52.020;5.670;2023-05-01T02:57:51;101418.25;;;12.19;54.68
69624;BME280;56843;52.020;5.670;2023-05-01T02:59:22;101412.88;;;12.19;54.97
69624;BME280;56843;52.020;5.670;2023-05-01T03:00:52;101409.41;;;12.18;54.97
69624;BME280;56843;52.020;5.670;2023-05-01T03:02:23;101422.81;;;12.18;54.72
69624;BME280;56843;52.020;5.670;2023-05-01T03:03:54;101404.38;;;12.17;54.98
69624;BME280;56843;52.020;5.670;2023-05-01T03:05:24;101411.63;;;12.16;54.90
69624;BME280;56843;52.020;5.670;2023-05-01T03:06:56;101417.44;;;12.18;54.79
69624;BME280;56843;52.020;5.670;2023-05-01T03:08:26;101404.06;;;12.18;54.82
69624;BME280;56843;52.020;5.670;2023-05-01T03:09:57;101404.06;;;12.18;54.62
69624;BME280;56843;52.020;5.670;2023-05-01T03:11:27;101408.63;;;12.18;54.72
69624;BME280;56843;52.020;5.670;2023-05-01T03:12:58;101394.94;;;12.19;54.85
69624;BME280;56843;52.020;5.670;2023-05-01T03:14:28;101404.06;;;12.18;54.58
69624;BME280;56843;52.020;5.670;2023-05-01T03:15:59;101404.06;;;12.18;54.51
69624;BME280;56843;52.020;5.670;2023-05-01T03:17:29;101402.19;;;12.19;54.95
69624;BME280;56843;52.020;5.670;2023-05-01T03:19:00;101400.59;;;12.18;55.01
69624;BME280;56843;52.020;5.670;2023-05-01T03:20:30;101396.81;;;12.19;55.04
69624;BME280;56843;52.020;5.670;2023-05-01T03:22:01;101392.56;;;12.18;54.64
69624;BME280;56843;52.020;5.670;2023-05-01T03:23:33;101397.91;;;12.18;54.57
69624;BME280;56843;52.020;5.670;2023-05-01T03:25:04;101397.16;;;12.17;55.08
69624;BME280;56843;52.020;5.670;2023-05-01T03:26:35;101393.69;;;12.17;54.93
69624;BME280;56843;52.020;5.670;2023-05-01T03:28:06;101397.16;;;12.17;54.95
69624;BME280;56843;52.020;5.670;2023-05-01T03:29:37;101389.13;;;12.17;54.78
69624;BME280;56843;52.020;5.670;2023-05-01T03:31:07;101383.25;;;12.15;54.98
69624;BME280;56843;52.020;5.670;2023-05-01T03:32:38;101385.94;;;12.15;54.86
69624;BME280;56843;52.020;5.670;2023-05-01T03:34:10;101391.28;;;12.15;54.58
69624;BME280;56843;52.020;5.670;2023-05-01T03:35:40;101388.63;;;12.15;54.90
69624;BME280;56843;52.020;5.670;2023-05-01T03:37:12;101379.03;;;12.14;54.89
69624;BME280;56843;52.020;5.670;2023-05-01T03:38:43;101388.94;;;12.14;54.56
69624;BME280;56843;52.020;5.670;2023-05-01T03:40:14;101387.06;;;12.14;55.03
69624;BME280;56843;52.020;5.670;2023-05-01T03:42:07;101381.25;;;12.12;54.50
69624;BME280;56843;52.020;5.670;2023-05-01T03:43:43;101380.13;;;12.13;54.58
69624;BME280;56843;52.020;5.670;2023-05-01T03:45:23;101376.19;;;12.11;54.73
69624;BME280;56843;52.020;5.670;2023-05-01T03:46:54;101381.25;;;12.12;54.99
69624;BME280;56843;52.020;5.670;2023-05-01T03:48:28;101376.97;;;12.11;54.64
69624;BME280;56843;52.020;5.670;2023-05-01T03:50:00;101373.22;;;12.12;55.03
69624;BME280;56843;52.020;5.670;2023-05-01T03:51:31;101374.31;;;12.11;54.92
69624;BME280;56843;52.020;5.670;2023-05-01T03:53:02;101380.44;;;12.12;54.73
69624;BME280;56843;52.020;5.670;2023-05-01T03:54:32;101369.28;;;12.10;54.85
69624;BME280;56843;52.020;5.670;2023-05-01T03:56:17;101368.81;;;12.08;54.67
69624;BME280;56843;52.020;5.670;2023-05-01T03:57:48;101370.38;;;12.09;54.57
69624;BME280;56843;52.020;5.670;2023-05-01T03:59:19;101367.69;;;12.09;54.86
69624;BME280;56843;52.020;5.670;2023-05-01T04:00:50;101368.47;;;12.09;54.88
69624;BME280;56843;52.020;5.670;2023-05-01T04:02:20;101367.69;;;12.09;54.74
69624;BME280;56843;52.020;5.670;2023-05-01T04:03:51;101358.91;;;12.08;54.83
69624;BME280;56843;52.020;5.670;2023-05-01T04:05:22;101368.47;;;12.09;54.49
69624;BME280;56843;52.020;5.670;2023-05-01T04:06:58;101357.31;;;12.07;54.73
69624;BME280;56843;52.020;5.670;2023-05-01T04:08:29;101364.25;;;12.08;54.68
69624;BME280;56843;52.020;5.670;2023-05-01T04:10:00;101355.44;;;12.08;54.53
69624;BME280;56843;52.020;5.670;2023-05-01T04:11:30;101358.09;;;12.08;54.60
69624;BME280;56843;52.020;5.670;2023-05-01T04:13:01;101353.84;;;12.07;54.88
69624;BME280;56843;52.020;5.670;2023-05-01T04:14:31;101364.53;;;12.07;54.73
69624;BME280;56843;52.020;5.670;2023-05-01T04:16:02;101359.97;;;12.07;54.92
69624;BME280;56843;52.020;5.670;2023-05-01T04:17:34;101361.88;;;12.07;54.72
69624;BME280;56843;52.020;5.670;2023-05-01T04:19:05;101363.78;;;12.06;54.88
69624;BME280;56843;52.020;5.670;2023-05-01T04:20:38;101363.78;;;12.06;54.83
69624;BME280;56843;52.020;5.670;2023-05-01T04:22:12;101360.31;;;12.06;54.84
69624;BME280;56843;52.020;5.670;2023-05-01T04:23:43;101356.84;;;12.05;54.95
69624;BME280;56843;52.020;5.670;2023-05-01T04:25:13;101358.44;;;12.06;54.60
69624;BME280;56843;52.020;5.670;2023-05-01T04:26:44;101354.97;;;12.06;54.62
69624;BME280;56843;52.020;5.670;2023-05-01T04:28:15;101355.75;;;12.06;54.73
69624;BME280;56843;52.020;5.670;2023-05-01T04:29:45;101352.75;;;12.08;54.85
69624;BME280;56843;52.020;5.670;2023-05-01T04:31:16;101347.72;;;12.06;54.81
69624;BME280;56843;52.020;5.670;2023-05-01T04:32:46;101345.34;;;12.05;54.67
69624;BME280;56843;52.020;5.670;2023-05-01T04:34:17;101350.69;;;12.05;54.90
69624;BME280;56843;52.020;5.670;2023-05-01T04:35:48;101352.56;;;12.04;54.65
69624;BME280;56843;52.020;5.670;2023-05-01T04:37:19;101342.66;;;12.05;54.80
69624;BME280;56843;52.020;5.670;2023-05-01T04:38:50;101341.88;;;12.04;54.63
69624;BME280;56843;52.020;5.670;2023-05-01T04:40:21;101347.22;;;12.04;54.72
69624;BME280;56843;52.020;5.670;2023-05-01T04:41:51;101352.56;;;12.04;54.89
69624;BME280;56843;52.020;5.670;2023-05-01T04:43:22;101347.22;;;12.04;54.50
69624;BME280;56843;52.020;5.670;2023-05-01T04:44:53;101340.00;;;12.05;54.36
69624;BME280;56843;52.020;5.670;2023-05-01T04:46:24;101346.13;;;12.05;54.71
69624;BME280;56843;52.020;5.670;2023-05-01T04:47:55;101341.56;;;12.06;54.31
69624;BME280;56843;52.020;5.670;2023-05-01T04:49:25;101349.28;;;12.07;54.42
69624;BME280;56843;52.020;5.670;2023-05-01T04:50:56;101346.28;;;12.09;54.57
69624;BME280;56843;52.020;5.670;2023-05-01T04:52:28;101343.59;;;12.09;54.45
69624;BME280;56843;52.020;5.670;2023-05-01T04:54:02;101339.81;;;12.10;54.79
69624;BME280;56843;52.020;5.670;2023-05-01T04:55:34;101344.06;;;12.11;54.64
69624;BME280;56843;52.020;5.670;2023-05-01T04:57:13;101340.91;;;12.09;54.22
69624;BME280;56843;52.020;5.670;2023-05-01T04:58:44;101343.28;;;12.10;54.46
69624;BME280;56843;52.020;5.670;2023-05-01T05:00:18;101344.84;;;12.11;54.66
69624;BME280;56843;52.020;5.670;2023-05-01T05:01:56;101347.53;;;12.11;54.78
69624;BME280;56843;52.020;5.670;2023-05-01T05:03:27;101341.88;;;12.13;54.61
69624;BME280;56843;52.020;5.670;2023-05-01T05:04:58;101347.22;;;12.13;54.71
69624;BME280;56843;52.020;5.670;2023-05-01T05:06:29;101348.00;;;12.13;54.72
69624;BME280;56843;52.020;5.670;2023-05-01T05:08:00;101350.38;;;12.15;54.62
69624;BME280;56843;52.020;5.670;2023-05-01T05:09:37;101354.94;;;12.14;54.52
69624;BME280;56843;52.020;5.670;2023-05-01T05:11:08;101350.84;;;12.17;54.40
69624;BME280;56843;52.020;5.670;2023-05-01T05:12:53;101353.81;;;12.15;54.54
69624;BME280;56843;52.020;5.670;2023-05-01T05:14:24;101353.50;;;12.17;54.59
69624;BME280;56843;52.020;5.670;2023-05-01T05:15:54;101352.72;;;12.16;54.19
69624;BME280;56843;52.020;5.670;2023-05-01T05:17:27;101345.47;;;12.17;54.53
69624;BME280;56843;52.020;5.670;2023-05-01T05:18:57;101349.72;;;12.18;54.15
69624;BME280;56843;52.020;5.670;2023-05-01T05:20:30;101355.88;;;12.18;54.50
69624;BME280;56843;52.020;5.670;2023-05-01T05:22:01;101352.09;;;12.19;54.30
69624;BME280;56843;52.020;5.670;2023-05-01T05:23:35;101354.78;;;12.19;54.30
69624;BME280;56843;52.020;5.670;2023-05-01T05:25:06;101356.31;;;12.20;54.60
69624;BME280;56843;52.020;5.670;2023-05-01T05:26:36;101357.91;;;12.21;54.15
69624;BME280;56843;52.020;5.670;2023-05-01T05:28:07;101356.78;;;12.22;54.30
69624;BME280;56843;52.020;5.670;2023-05-01T05:29:38;101359.47;;;12.22;54.11
69624;BME280;56843;52.020;5.670;2023-05-01T05:31:09;101356.78;;;12.22;54.17
69624;BME280;56843;52.020;5.670;2023-05-01T05:32:40;101361.84;;;12.24;54.31
69624;BME280;56843;52.020;5.670;2023-05-01T05:34:10;101346.88;;;12.23;54.45
69624;BME280;56843;52.020;5.670;2023-05-01T05:35:41;101353.03;;;12.23;54.55
69624;BME280;56843;52.020;5.670;2023-05-01T05:37:12;101359.16;;;12.24;54.13
69624;BME280;56843;52.020;5.670;2023-05-01T05:38:51;101348.13;;;12.25;54.15
69624;BME280;56843;52.020;5.670;2023-05-01T05:40:23;101352.38;;;12.26;54.51
69624;BME280;56843;52.020;5.670;2023-05-01T05:41:58;101350.47;;;12.27;54.47
69624;BME280;56843;52.020;5.670;2023-05-01T05:43:29;101346.72;;;12.28;54.57
69624;BME280;56843;52.020;5.670;2023-05-01T05:45:00;101347.47;;;12.28;54.18
69624;BME280;56843;52.020;5.670;2023-05-01T05:46:31;101346.38;;;12.29;54.25
69624;BME280;56843;52.020;5.670;2023-05-01T05:48:02;101348.72;;;12.31;53.95
69624;BME280;56843;52.020;5.670;2023-05-01T05:49:35;101347.16;;;12.30;53.94
69624;BME280;56843;52.020;5.670;2023-05-01T05:51:06;101349.06;;;12.29;54.08
69624;BME280;56843;52.020;5.670;2023-05-01T05:52:36;101339.75;;;12.27;54.25
69624;BME280;56843;52.020;5.670;2023-05-01T05:54:07;101339.31;;;12.25;54.55
69624;BME280;56843;52.020;5.670;2023-05-01T05:55:39;101340.72;;;12.22;54.64
69624;BME280;56843;52.020;5.670;2023-05-01T05:57:12;101342.16;;;12.20;54.98
69624;BME280;56843;52.020;5.670;2023-05-01T05:58:47;101339.78;;;12.18;54.83
69624;BME280;56843;52.020;5.670;2023-05-01T06:00:18;101343.59;;;12.17;54.85
69624;BME280;56843;52.020;5.670;2023-05-01T06:01:52;101336.66;;;12.16;54.88
69624;BME280;56843;52.020;5.670;2023-05-01T06:03:23;101337.75;;;12.15;55.21
69624;BME280;56843;52.020;5.670;2023-05-01T06:04:56;101339.66;;;12.15;54.95
69624;BME280;56843;52.020;5.670;2023-05-01T06:06:32;101342.00;;;12.16;55.23
69624;BME280;56843;52.020;5.670;2023-05-01T06:08:03;101341.22;;;12.16;55.31
69624;BME280;56843;52.020;5.670;2023-05-01T06:09:33;101338.53;;;12.16;55.32
69624;BME280;56843;52.020;5.670;2023-05-01T06:11:05;101333.97;;;12.16;55.41
69624;BME280;56843;52.020;5.670;2023-05-01T06:12:36;101344.34;;;12.18;55.20
69624;BME280;56843;52.020;5.670;2023-05-01T06:14:08;101327.53;;;12.17;54.68
69624;BME280;56843;52.020;5.670;2023-05-01T06:15:39;101333.34;;;12.19;55.30
69624;BME280;56843;52.020;5.670;2023-05-01T06:17:10;101327.19;;;12.19;55.16
69624;BME280;56843;52.020;5.670;2023-05-01T06:18:41;101346.06;;;12.22;55.02
69624;BME280;56843;52.020;5.670;2023-05-01T06:20:11;101328.13;;;12.23;54.97
69624;BME280;56843;52.020;5.670;2023-05-01T06:21:44;101328.59;;;12.25;54.87
69624;BME280;56843;52.020;5.670;2023-05-01T06:23:14;101330.94;;;12.26;55.07
69624;BME280;56843;52.020;5.670;2023-05-01T06:25:04;101324.81;;;12.26;55.17
69624;BME280;56843;52.020;5.670;2023-05-01T06:26:36;101327.97;;;12.28;55.26
69624;BME280;56843;52.020;5.670;2023-05-01T06:28:07;101325.75;;;12.30;54.71
69624;BME280;56843;52.020;5.670;2023-05-01T06:29:38;101335.03;;;12.32;54.92
69624;BME280;56843;52.020;5.670;2023-05-01T06:31:09;101332.03;;;12.34;54.92
69624;BME280;56843;52.020;5.670;2023-05-01T06:32:45;101331.69;;;12.35;55.13
69624;BME280;56843;52.020;5.670;2023-05-01T06:34:16;101334.06;;;12.37;55.03
69624;BME280;56843;52.020;5.670;2023-05-01T06:35:51;101331.06;;;12.38;54.78
69624;BME280;56843;52.020;5.670;2023-05-01T06:37:23;101335.00;;;12.41;54.69
69624;BME280;56843;52.020;5.670;2023-05-01T06:38:54;101327.75;;;12.41;54.94
69624;BME280;56843;52.020;5.670;2023-05-01T06:40:25;101327.56;;;12.46;54.60
69624;BME280;56843;52.020;5.670;2023-05-01T06:41:55;101330.69;;;12.48;54.56
69624;BME280;56843;52.020;5.670;2023-05-01T06:43:35;101329.59;;;12.49;54.69
69624;BME280;56843;52.020;5.670;2023-05-01T06:45:06;101334.31;;;12.52;54.66
69624;BME280;56843;52.020;5.670;2023-05-01T06:46:37;101320.59;;;12.54;54.50
69624;BME280;56843;52.020;5.670;2023-05-01T06:48:08;101319.97;;;12.57;54.46
69624;BME280;56843;52.020;5.670;2023-05-01T06:49:39;101321.53;;;12.58;54.77
69624;BME280;56843;52.020;5.670;2023-05-01T06:51:10;101319.75;;;12.62;54.83
69624;BME280;56843;52.020;5.670;2023-05-01T06:52:44;101318.34;;;12.65;54.79
69624;BME280;56843;52.020;5.670;2023-05-01T06:54:14;101313.88;;;12.69;54.63
69624;BME280;56843;52.020;5.670;2023-05-01T06:55:44;101325.88;;;12.71;54.67
69624;BME280;56843;52.020;5.670;2023-05-01T06:57:15;101326.78;;;12.75;54.54
69624;BME280;56843;52.020;5.670;2023-05-01T06:58:45;101320.19;;;12.81;54.37
69624;BME280;56843;52.020;5.670;2023-05-01T07:00:16;101325.50;;;12.90;54.45
69624;BME280;56843;52.020;5.670;2023-05-01T07:01:47;101316.59;;;12.98;54.69
69624;BME280;56843;52.020;5.670;2023-05-01T07:03:18;101321.25;;;13.09;54.84
69624;BME280;56843;52.020;5.670;2023-05-01T07:04:48;101326.22;;;13.19;54.51
69624;BME280;56843;52.020;5.670;2023-05-01T07:06:19;101323.94;;;13.30;54.60
69624;BME280;56843;52.020;5.670;2023-05-01T07:07:49;101322.75;;;13.40;54.72
69624;BME280;56843;52.020;5.670;2023-05-01T07:09:20;101324.25;;;13.49;54.84
69624;BME280;56843;52.020;5.670;2023-05-01T07:10:50;101320.38;;;13.59;54.45
69624;BME280;56843;52.020;5.670;2023-05-01T07:12:21;101317.63;;;13.67;54.37
69624;BME280;56843;52.020;5.670;2023-05-01T07:13:53;101318.78;;;13.78;54.28
69624;BME280;56843;52.020;5.670;2023-05-01T07:15:23;101309.84;;;13.86;54.22
69624;BME280;56843;52.020;5.670;2023-05-01T07:16:54;101322.41;;;13.94;53.95
69624;BME280;56843;52.020;5.670;2023-05-01T07:18:24;101317.72;;;14.04;54.03
69624;BME280;56843;52.020;5.670;2023-05-01T07:19:55;101317.19;;;14.10;54.00
69624;BME280;56843;52.020;5.670;2023-05-01T07:21:25;101322.81;;;14.17;54.05
69624;BME280;56843;52.020;5.670;2023-05-01T07:22:56;101319.25;;;14.25;53.81
69624;BME280;56843;52.020;5.670;2023-05-01T07:24:26;101322.94;;;14.33;53.73
69624;BME280;56843;52.020;5.670;2023-05-01T07:25:57;101315.44;;;14.38;53.74
69624;BME280;56843;52.020;5.670;2023-05-01T07:27:27;101312.97;;;14.45;53.54
69624;BME280;56843;52.020;5.670;2023-05-01T07:28:59;101313.09;;;14.49;53.81
69624;BME280;56843;52.020;5.670;2023-05-01T07:30:30;101314.88;;;14.57;53.80
69624;BME280;56843;52.020;5.670;2023-05-01T07:32:02;101319.69;;;14.63;53.52
69624;BME280;56843;52.020;5.670;2023-05-01T07:33:35;101315.69;;;14.69;53.40
69624;BME280;56843;52.020;5.670;2023-05-01T07:35:05;101315.44;;;14.74;53.60
69624;BME280;56843;52.020;5.670;2023-05-01T07:36:36;101318.69;;;14.80;53.04
69624;BME280;56843;52.020;5.670;2023-05-01T07:38:07;101313.84;;;14.86;53.35
69624;BME280;56843;52.020;5.670;2023-05-01T07:39:38;101313.63;;;14.91;53.44
69624;BME280;56843;52.020;5.670;2023-05-01T07:41:08;101311.81;;;14.95;53.07
69624;BME280;56843;52.020;5.670;2023-05-01T07:42:39;101314.28;;;15.00;53.25
69624;BME280;56843;52.020;5.670;2023-05-01T07:44:09;101321.38;;;15.04;53.29
69624;BME280;56843;52.020;5.670;2023-05-01T07:45:40;101316.53;;;15.10;53.14
69624;BME280;56843;52.020;5.670;2023-05-01T07:47:11;101316.28;;;15.15;53.19
69624;BME280;56843;52.020;5.670;2023-05-01T07:48:42;101321.44;;;15.20;53.05
69624;BME280;56843;52.020;5.670;2023-05-01T07:50:13;101320.88;;;15.26;52.96
69624;BME280;56843;52.020;5.670;2023-05-01T07:51:44;101315.25;;;15.31;52.84
69624;BME280;56843;52.020;5.670;2023-05-01T07:53:14;101311.50;;;15.36;52.96
69624;BME280;56843;52.020;5.670;2023-05-01T07:54:51;101306.69;;;15.41;52.76
69624;BME280;56843;52.020;5.670;2023-05-01T07:56:22;101312.16;;;15.45;52.82
69624;BME280;56843;52.020;5.670;2023-05-01T07:57:52;101311.56;;;15.52;52.55
69624;BME280;56843;52.020;5.670;2023-05-01T07:59:23;101310.53;;;15.56;52.58
69624;BME280;56843;52.020;5.670;2023-05-01T08:00:54;101303.25;;;15.57;52.51
69624;BME280;56843;52.020;5.670;2023-05-01T08:02:24;101309.25;;;15.66;52.57
69624;BME280;56843;52.020;5.670;2023-05-01T08:03:55;101308.59;;;15.69;52.46
69624;BME280;56843;52.020;5.670;2023-05-01T08:05:25;101308.31;;;15.74;52.64
69624;BME280;56843;52.020;5.670;2023-05-01T08:06:56;101299.91;;;15.75;52.19
69624;BME280;56843;52.020;5.670;2023-05-01T08:08:26;101298.09;;;15.79;52.19
69624;BME280;56843;52.020;5.670;2023-05-01T08:09:57;101307.47;;;15.85;52.20
69624;BME280;56843;52.020;5.670;2023-05-01T08:11:29;101310.28;;;15.89;52.15
69624;BME280;56843;52.020;5.670;2023-05-01T08:13:00;101310.34;;;15.92;51.98
69624;BME280;56843;52.020;5.670;2023-05-01T08:14:30;101303.50;;;15.95;52.06
69624;BME280;56843;52.020;5.670;2023-05-01T08:16:01;101299.78;;;15.99;51.96
69624;BME280;56843;52.020;5.670;2023-05-01T08:17:34;101302.56;;;16.03;51.74